Terminal Aerodrome Forecast
Issued by NWS Grand Forks, ND

Home | Current Version | Previous Version | Graphics & Text | Print | Product List | Glossary On
Versions: 1 2 3 4 5 6 7 8 9 10 11 12 13 14 15 16 17 18
055
FTUS43 KFGF 251632 AAA
TAFGFK
TAF AMD
KGFK 251632Z 2517/2612 30022G30KT P6SM VCSH BKN015
     FM252100 31025G35KT P6SM OVC025
     FM260300 30014KT P6SM SCT090=

USA.gov is the U.S. government's official web portal to all federal, state and local government web resources and services.